sensor_id;sensor_type;location;lat;lon;timestamp;P1;durP1;ratioP1;P2;durP2;ratioP2
20802;SDS011;10562;-33.856;151.182;2023-12-29T00:01:52;7.50;;;1.90;;
20802;SDS011;10562;-33.856;151.182;2023-12-29T00:04:23;8.35;;;1.70;;
20802;SDS011;10562;-33.856;151.182;2023-12-29T00:06:54;8.18;;;1.77;;
20802;SDS011;10562;-33.856;151.182;2023-12-29T00:09:25;10.85;;;2.03;;
20802;SDS011;10562;-33.856;151.182;2023-12-29T00:12:06;8.93;;;2.10;;
20802;SDS011;10562;-33.856;151.182;2023-12-29T00:14:38;9.77;;;1.90;;
20802;SDS011;10562;-33.856;151.182;2023-12-29T00:17:09;4.43;;;1.60;;
20802;SDS011;10562;-33.856;151.182;2023-12-29T00:19:40;11.13;;;1.95;;
20802;SDS011;10562;-33.856;151.182;2023-12-29T00:22:11;9.85;;;1.75;;
20802;SDS011;10562;-33.856;151.182;2023-12-29T00:24:42;10.95;;;1.67;;
20802;SDS011;10562;-33.856;151.182;2023-12-29T00:27:14;6.13;;;1.60;;
20802;SDS011;10562;-33.856;151.182;2023-12-29T00:29:46;7.07;;;1.77;;
20802;SDS011;10562;-33.856;151.182;2023-12-29T00:32:16;10.38;;;1.85;;
20802;SDS011;10562;-33.856;151.182;2023-12-29T00:34:47;9.70;;;2.00;;
20802;SDS011;10562;-33.856;151.182;2023-12-29T00:37:18;9.35;;;1.60;;
20802;SDS011;10562;-33.856;151.182;2023-12-29T00:39:49;9.23;;;2.10;;
20802;SDS011;10562;-33.856;151.182;2023-12-29T00:42:21;10.40;;;1.73;;
20802;SDS011;10562;-33.856;151.182;2023-12-29T00:44:52;9.63;;;2.08;;
20802;SDS011;10562;-33.856;151.182;2023-12-29T00:47:23;6.15;;;1.58;;
20802;SDS011;10562;-33.856;151.182;2023-12-29T00:49:53;13.30;;;1.95;;
20802;SDS011;10562;-33.856;151.182;2023-12-29T00:52:25;9.40;;;1.70;;
20802;SDS011;10562;-33.856;151.182;2023-12-29T00:54:56;8.80;;;1.70;;
20802;SDS011;10562;-33.856;151.182;2023-12-29T00:57:29;9.73;;;1.70;;
20802;SDS011;10562;-33.856;151.182;2023-12-29T01:00:00;10.68;;;1.70;;
20802;SDS011;10562;-33.856;151.182;2023-12-29T01:02:31;12.00;;;1.98;;
20802;SDS011;10562;-33.856;151.182;2023-12-29T01:05:02;10.15;;;1.90;;
20802;SDS011;10562;-33.856;151.182;2023-12-29T01:07:33;13.13;;;2.35;;
20802;SDS011;10562;-33.856;151.182;2023-12-29T01:10:04;9.57;;;1.88;;
20802;SDS011;10562;-33.856;151.182;2023-12-29T01:12:37;10.27;;;1.98;;
20802;SDS011;10562;-33.856;151.182;2023-12-29T01:15:08;8.65;;;1.75;;
20802;SDS011;10562;-33.856;151.182;2023-12-29T01:17:40;8.57;;;1.80;;
20802;SDS011;10562;-33.856;151.182;2023-12-29T01:20:11;9.25;;;1.98;;
20802;SDS011;10562;-33.856;151.182;2023-12-29T01:22:42;8.27;;;1.70;;
20802;SDS011;10562;-33.856;151.182;2023-12-29T01:25:13;8.02;;;1.48;;
20802;SDS011;10562;-33.856;151.182;2023-12-29T01:27:45;6.93;;;1.55;;
20802;SDS011;10562;-33.856;151.182;2023-12-29T01:30:16;14.30;;;2.10;;
20802;SDS011;10562;-33.856;151.182;2023-12-29T01:32:47;8.68;;;1.75;;
20802;SDS011;10562;-33.856;151.182;2023-12-29T01:35:17;9.65;;;1.63;;
20802;SDS011;10562;-33.856;151.182;2023-12-29T01:37:48;10.00;;;1.90;;
20802;SDS011;10562;-33.856;151.182;2023-12-29T01:40:19;10.80;;;2.00;;
20802;SDS011;10562;-33.856;151.182;2023-12-29T01:42:52;10.55;;;1.73;;
20802;SDS011;10562;-33.856;151.182;2023-12-29T01:45:23;10.55;;;2.20;;
20802;SDS011;10562;-33.856;151.182;2023-12-29T01:47:54;12.98;;;2.05;;
20802;SDS011;10562;-33.856;151.182;2023-12-29T01:50:30;9.50;;;1.67;;
20802;SDS011;10562;-33.856;151.182;2023-12-29T01:53:04;10.35;;;1.73;;
20802;SDS011;10562;-33.856;151.182;2023-12-29T01:55:36;8.43;;;1.95;;
20802;SDS011;10562;-33.856;151.182;2023-12-29T01:58:11;12.80;;;2.03;;
20802;SDS011;10562;-33.856;151.182;2023-12-29T02:00:44;13.48;;;2.28;;
20802;SDS011;10562;-33.856;151.182;2023-12-29T02:03:16;12.27;;;1.90;;
20802;SDS011;10562;-33.856;151.182;2023-12-29T02:05:52;12.20;;;2.15;;
20802;SDS011;10562;-33.856;151.182;2023-12-29T02:08:25;11.18;;;1.80;;
20802;SDS011;10562;-33.856;151.182;2023-12-29T02:10:57;8.68;;;1.98;;
20802;SDS011;10562;-33.856;151.182;2023-12-29T02:13:33;9.80;;;2.15;;
20802;SDS011;10562;-33.856;151.182;2023-12-29T02:16:07;9.60;;;2.10;;
20802;SDS011;10562;-33.856;151.182;2023-12-29T02:18:44;11.70;;;2.05;;
20802;SDS011;10562;-33.856;151.182;2023-12-29T02:21:23;12.45;;;2.25;;
20802;SDS011;10562;-33.856;151.182;2023-12-29T02:24:03;9.68;;;1.92;;
20802;SDS011;10562;-33.856;151.182;2023-12-29T02:26:43;11.20;;;1.95;;
20802;SDS011;10562;-33.856;151.182;2023-12-29T02:29:23;9.52;;;1.92;;
20802;SDS011;10562;-33.856;151.182;2023-12-29T02:31:57;11.93;;;2.35;;
20802;SDS011;10562;-33.856;151.182;2023-12-29T02:34:42;13.27;;;2.45;;
20802;SDS011;10562;-33.856;151.182;2023-12-29T02:37:17;12.05;;;2.40;;
20802;SDS011;10562;-33.856;151.182;2023-12-29T02:39:52;9.73;;;1.92;;
20802;SDS011;10562;-33.856;151.182;2023-12-29T02:42:38;10.88;;;2.15;;
20802;SDS011;10562;-33.856;151.182;2023-12-29T02:45:13;9.45;;;1.95;;
20802;SDS011;10562;-33.856;151.182;2023-12-29T02:47:46;12.43;;;2.20;;
20802;SDS011;10562;-33.856;151.182;2023-12-29T02:50:21;16.48;;;2.45;;
20802;SDS011;10562;-33.856;151.182;2023-12-29T02:52:55;12.63;;;2.53;;
20802;SDS011;10562;-33.856;151.182;2023-12-29T02:55:32;9.65;;;2.10;;
20802;SDS011;10562;-33.856;151.182;2023-12-29T02:58:06;14.60;;;2.00;;
20802;SDS011;10562;-33.856;151.182;2023-12-29T03:00:41;10.23;;;2.10;;
20802;SDS011;10562;-33.856;151.182;2023-12-29T03:03:17;10.07;;;1.80;;
20802;SDS011;10562;-33.856;151.182;2023-12-29T03:05:59;16.77;;;2.35;;
20802;SDS011;10562;-33.856;151.182;2023-12-29T03:08:30;15.02;;;2.25;;
20802;SDS011;10562;-33.856;151.182;2023-12-29T03:11:01;10.35;;;1.88;;
20802;SDS011;10562;-33.856;151.182;2023-12-29T03:13:48;12.05;;;1.83;;
20802;SDS011;10562;-33.856;151.182;2023-12-29T03:16:19;9.35;;;1.90;;
20802;SDS011;10562;-33.856;151.182;2023-12-29T03:18:52;9.70;;;1.65;;
20802;SDS011;10562;-33.856;151.182;2023-12-29T03:21:23;10.30;;;1.90;;
20802;SDS011;10562;-33.856;151.182;2023-12-29T03:23:54;14.57;;;2.28;;
20802;SDS011;10562;-33.856;151.182;2023-12-29T03:26:34;11.93;;;2.03;;
20802;SDS011;10562;-33.856;151.182;2023-12-29T03:29:11;11.43;;;1.90;;
20802;SDS011;10562;-33.856;151.182;2023-12-29T03:31:59;12.48;;;2.00;;
20802;SDS011;10562;-33.856;151.182;2023-12-29T03:34:34;10.02;;;1.80;;
20802;SDS011;10562;-33.856;151.182;2023-12-29T03:37:06;12.23;;;1.80;;
20802;SDS011;10562;-33.856;151.182;2023-12-29T03:39:39;10.15;;;1.85;;
20802;SDS011;10562;-33.856;151.182;2023-12-29T03:42:11;8.32;;;2.08;;
20802;SDS011;10562;-33.856;151.182;2023-12-29T03:44:46;13.55;;;2.20;;
20802;SDS011;10562;-33.856;151.182;2023-12-29T03:47:18;13.10;;;2.03;;
20802;SDS011;10562;-33.856;151.182;2023-12-29T03:49:53;12.05;;;2.00;;
20802;SDS011;10562;-33.856;151.182;2023-12-29T03:52:36;10.90;;;1.98;;
20802;SDS011;10562;-33.856;151.182;2023-12-29T03:55:08;11.48;;;2.17;;
20802;SDS011;10562;-33.856;151.182;2023-12-29T03:57:43;12.63;;;2.10;;
20802;SDS011;10562;-33.856;151.182;2023-12-29T04:00:17;11.20;;;1.88;;
20802;SDS011;10562;-33.856;151.182;2023-12-29T04:02:54;7.03;;;1.65;;
20802;SDS011;10562;-33.856;151.182;2023-12-29T04:05:25;11.32;;;1.77;;
20802;SDS011;10562;-33.856;151.182;2023-12-29T04:07:57;13.90;;;2.00;;
20802;SDS011;10562;-33.856;151.182;2023-12-29T04:10:31;16.42;;;2.28;;
20802;SDS011;10562;-33.856;151.182;2023-12-29T04:13:04;11.52;;;2.20;;
20802;SDS011;10562;-33.856;151.182;2023-12-29T04:15:37;15.35;;;2.22;;
20802;SDS011;10562;-33.856;151.182;2023-12-29T04:18:10;11.20;;;2.28;;
20802;SDS011;10562;-33.856;151.182;2023-12-29T04:20:43;14.85;;;2.28;;
20802;SDS011;10562;-33.856;151.182;2023-12-29T04:23:15;10.23;;;2.08;;
20802;SDS011;10562;-33.856;151.182;2023-12-29T04:25:57;9.15;;;1.80;;
20802;SDS011;10562;-33.856;151.182;2023-12-29T04:28:36;10.13;;;1.70;;
20802;SDS011;10562;-33.856;151.182;2023-12-29T04:31:14;12.52;;;2.10;;
20802;SDS011;10562;-33.856;151.182;2023-12-29T04:33:49;10.98;;;2.00;;
20802;SDS011;10562;-33.856;151.182;2023-12-29T04:36:21;16.50;;;2.30;;
20802;SDS011;10562;-33.856;151.182;2023-12-29T04:38:52;13.00;;;2.25;;
20802;SDS011;10562;-33.856;151.182;2023-12-29T04:41:23;11.68;;;2.00;;
20802;SDS011;10562;-33.856;151.182;2023-12-29T04:43:54;12.75;;;2.53;;
20802;SDS011;10562;-33.856;151.182;2023-12-29T04:46:27;11.77;;;2.25;;
20802;SDS011;10562;-33.856;151.182;2023-12-29T04:48:58;10.68;;;1.73;;
20802;SDS011;10562;-33.856;151.182;2023-12-29T04:51:31;10.27;;;2.00;;
20802;SDS011;10562;-33.856;151.182;2023-12-29T04:54:01;9.68;;;2.05;;
20802;SDS011;10562;-33.856;151.182;2023-12-29T04:56:32;9.95;;;2.00;;
20802;SDS011;10562;-33.856;151.182;2023-12-29T04:59:03;10.80;;;1.73;;
20802;SDS011;10562;-33.856;151.182;2023-12-29T05:01:35;10.20;;;1.88;;
20802;SDS011;10562;-33.856;151.182;2023-12-29T05:04:06;10.25;;;2.10;;
20802;SDS011;10562;-33.856;151.182;2023-12-29T05:06:37;12.95;;;1.80;;
20802;SDS011;10562;-33.856;151.182;2023-12-29T05:09:08;10.05;;;1.80;;
20802;SDS011;10562;-33.856;151.182;2023-12-29T05:11:39;6.82;;;1.50;;
20802;SDS011;10562;-33.856;151.182;2023-12-29T05:14:09;10.30;;;1.95;;
20802;SDS011;10562;-33.856;151.182;2023-12-29T05:16:42;8.75;;;1.60;;
20802;SDS011;10562;-33.856;151.182;2023-12-29T05:19:13;5.68;;;1.55;;
20802;SDS011;10562;-33.856;151.182;2023-12-29T05:21:44;8.70;;;1.63;;
20802;SDS011;10562;-33.856;151.182;2023-12-29T05:24:17;9.30;;;1.85;;
20802;SDS011;10562;-33.856;151.182;2023-12-29T05:26:47;8.95;;;1.92;;
20802;SDS011;10562;-33.856;151.182;2023-12-29T05:29:18;9.35;;;1.80;;
20802;SDS011;10562;-33.856;151.182;2023-12-29T05:31:51;8.80;;;1.98;;
20802;SDS011;10562;-33.856;151.182;2023-12-29T05:34:22;9.23;;;1.92;;
20802;SDS011;10562;-33.856;151.182;2023-12-29T05:36:53;13.23;;;2.40;;
20802;SDS011;10562;-33.856;151.182;2023-12-29T05:39:24;12.32;;;2.08;;
20802;SDS011;10562;-33.856;151.182;2023-12-29T05:41:55;10.02;;;1.75;;
20802;SDS011;10562;-33.856;151.182;2023-12-29T05:44:26;9.07;;;1.85;;
20802;SDS011;10562;-33.856;151.182;2023-12-29T05:46:59;10.50;;;1.55;;
20802;SDS011;10562;-33.856;151.182;2023-12-29T05:49:35;8.18;;;1.98;;
20802;SDS011;10562;-33.856;151.182;2023-12-29T05:52:06;12.23;;;1.75;;
20802;SDS011;10562;-33.856;151.182;2023-12-29T05:54:48;14.82;;;1.80;;
20802;SDS011;10562;-33.856;151.182;2023-12-29T05:57:19;10.93;;;2.10;;
20802;SDS011;10562;-33.856;151.182;2023-12-29T05:59:50;9.68;;;1.75;;
20802;SDS011;10562;-33.856;151.182;2023-12-29T06:02:23;7.75;;;1.90;;
20802;SDS011;10562;-33.856;151.182;2023-12-29T06:04:54;12.95;;;2.00;;
20802;SDS011;10562;-33.856;151.182;2023-12-29T06:07:24;10.68;;;1.88;;
20802;SDS011;10562;-33.856;151.182;2023-12-29T06:09:55;11.43;;;1.77;;
20802;SDS011;10562;-33.856;151.182;2023-12-29T06:12:26;12.40;;;1.83;;
20802;SDS011;10562;-33.856;151.182;2023-12-29T06:14:57;10.13;;;1.83;;
20802;SDS011;10562;-33.856;151.182;2023-12-29T06:17:29;8.68;;;2.05;;
20802;SDS011;10562;-33.856;151.182;2023-12-29T06:20:01;8.73;;;1.90;;
20802;SDS011;10562;-33.856;151.182;2023-12-29T06:22:32;12.52;;;2.60;;
20802;SDS011;10562;-33.856;151.182;2023-12-29T06:25:03;12.38;;;2.17;;
20802;SDS011;10562;-33.856;151.182;2023-12-29T06:27:37;12.07;;;2.35;;
20802;SDS011;10562;-33.856;151.182;2023-12-29T06:30:08;11.70;;;2.20;;
20802;SDS011;10562;-33.856;151.182;2023-12-29T06:32:41;12.20;;;2.65;;
20802;SDS011;10562;-33.856;151.182;2023-12-29T06:35:12;11.32;;;2.30;;
20802;SDS011;10562;-33.856;151.182;2023-12-29T06:37:43;14.65;;;2.10;;
20802;SDS011;10562;-33.856;151.182;2023-12-29T06:40:14;12.57;;;2.47;;
20802;SDS011;10562;-33.856;151.182;2023-12-29T06:42:46;14.25;;;2.75;;
20802;SDS011;10562;-33.856;151.182;2023-12-29T06:45:17;13.45;;;2.90;;
20802;SDS011;10562;-33.856;151.182;2023-12-29T06:47:50;11.30;;;2.22;;
20802;SDS011;10562;-33.856;151.182;2023-12-29T06:50:20;7.72;;;1.85;;
20802;SDS011;10562;-33.856;151.182;2023-12-29T06:52:51;12.77;;;2.38;;
20802;SDS011;10562;-33.856;151.182;2023-12-29T06:55:22;11.25;;;2.08;;
20802;SDS011;10562;-33.856;151.182;2023-12-29T06:57:54;8.90;;;2.00;;
20802;SDS011;10562;-33.856;151.182;2023-12-29T07:00:25;7.60;;;1.77;;
20802;SDS011;10562;-33.856;151.182;2023-12-29T07:02:57;9.10;;;1.90;;
20802;SDS011;10562;-33.856;151.182;2023-12-29T07:05:29;10.77;;;2.13;;
20802;SDS011;10562;-33.856;151.182;2023-12-29T07:08:00;12.25;;;2.22;;
20802;SDS011;10562;-33.856;151.182;2023-12-29T07:10:31;14.82;;;2.38;;
20802;SDS011;10562;-33.856;151.182;2023-12-29T07:13:03;10.23;;;2.30;;
20802;SDS011;10562;-33.856;151.182;2023-12-29T07:15:34;11.60;;;2.40;;
20802;SDS011;10562;-33.856;151.182;2023-12-29T07:18:07;14.07;;;2.47;;
20802;SDS011;10562;-33.856;151.182;2023-12-29T07:20:37;12.20;;;2.35;;
20802;SDS011;10562;-33.856;151.182;2023-12-29T07:23:08;13.82;;;2.58;;
20802;SDS011;10562;-33.856;151.182;2023-12-29T07:25:39;8.80;;;2.08;;
20802;SDS011;10562;-33.856;151.182;2023-12-29T07:28:10;13.50;;;2.50;;
20802;SDS011;10562;-33.856;151.182;2023-12-29T07:30:40;11.82;;;2.50;;
20802;SDS011;10562;-33.856;151.182;2023-12-29T07:33:13;11.68;;;2.53;;
20802;SDS011;10562;-33.856;151.182;2023-12-29T07:35:44;11.52;;;2.47;;
20802;SDS011;10562;-33.856;151.182;2023-12-29T07:38:15;12.73;;;2.65;;
20802;SDS011;10562;-33.856;151.182;2023-12-29T07:40:45;12.43;;;2.38;;
20802;SDS011;10562;-33.856;151.182;2023-12-29T07:43:16;10.25;;;2.28;;
20802;SDS011;10562;-33.856;151.182;2023-12-29T07:45:48;13.02;;;2.50;;
20802;SDS011;10562;-33.856;151.182;2023-12-29T07:48:20;10.73;;;2.20;;
20802;SDS011;10562;-33.856;151.182;2023-12-29T07:50:51;10.55;;;2.70;;
20802;SDS011;10562;-33.856;151.182;2023-12-29T07:53:22;12.13;;;2.40;;
20802;SDS011;10562;-33.856;151.182;2023-12-29T07:55:53;8.35;;;2.22;;
20802;SDS011;10562;-33.856;151.182;2023-12-29T07:58:23;9.20;;;2.45;;
20802;SDS011;10562;-33.856;151.182;2023-12-29T08:00:54;12.18;;;2.65;;
20802;SDS011;10562;-33.856;151.182;2023-12-29T08:03:27;12.15;;;2.30;;
20802;SDS011;10562;-33.856;151.182;2023-12-29T08:05:58;11.88;;;2.47;;
20802;SDS011;10562;-33.856;151.182;2023-12-29T08:08:28;12.30;;;2.35;;
20802;SDS011;10562;-33.856;151.182;2023-12-29T08:11:00;11.88;;;2.20;;
20802;SDS011;10562;-33.856;151.182;2023-12-29T08:13:31;12.48;;;2.63;;
20802;SDS011;10562;-33.856;151.182;2023-12-29T08:16:02;14.07;;;3.00;;
20802;SDS011;10562;-33.856;151.182;2023-12-29T08:18:35;9.02;;;2.47;;
20802;SDS011;10562;-33.856;151.182;2023-12-29T08:21:06;14.50;;;3.25;;
20802;SDS011;10562;-33.856;151.182;2023-12-29T08:23:37;12.93;;;3.13;;
20802;SDS011;10562;-33.856;151.182;2023-12-29T08:26:08;9.43;;;3.33;;
20802;SDS011;10562;-33.856;151.182;2023-12-29T08:28:38;15.55;;;3.50;;
20802;SDS011;10562;-33.856;151.182;2023-12-29T08:31:09;18.85;;;3.60;;
20802;SDS011;10562;-33.856;151.182;2023-12-29T08:33:42;12.35;;;3.15;;
20802;SDS011;10562;-33.856;151.182;2023-12-29T08:36:13;13.02;;;2.88;;
20802;SDS011;10562;-33.856;151.182;2023-12-29T08:38:46;11.15;;;2.80;;
20802;SDS011;10562;-33.856;151.182;2023-12-29T08:41:19;12.43;;;2.88;;
20802;SDS011;10562;-33.856;151.182;2023-12-29T08:43:49;13.02;;;2.88;;
20802;SDS011;10562;-33.856;151.182;2023-12-29T08:46:20;11.82;;;2.85;;
20802;SDS011;10562;-33.856;151.182;2023-12-29T08:48:53;17.95;;;3.00;;
20802;SDS011;10562;-33.856;151.182;2023-12-29T08:51:24;15.27;;;3.10;;
20802;SDS011;10562;-33.856;151.182;2023-12-29T08:53:55;11.88;;;3.10;;
20802;SDS011;10562;-33.856;151.182;2023-12-29T08:56:25;9.60;;;2.95;;
20802;SDS011;10562;-33.856;151.182;2023-12-29T08:58:56;10.18;;;3.15;;
20802;SDS011;10562;-33.856;151.182;2023-12-29T09:01:27;11.07;;;2.90;;
20802;SDS011;10562;-33.856;151.182;2023-12-29T09:04:02;14.98;;;3.70;;
20802;SDS011;10562;-33.856;151.182;2023-12-29T09:06:36;11.23;;;3.00;;
20802;SDS011;10562;-33.856;151.182;2023-12-29T09:09:08;12.70;;;3.38;;
20802;SDS011;10562;-33.856;151.182;2023-12-29T09:11:39;14.00;;;3.78;;
20802;SDS011;10562;-33.856;151.182;2023-12-29T09:14:11;13.18;;;3.67;;
20802;SDS011;10562;-33.856;151.182;2023-12-29T09:16:42;13.40;;;3.40;;
20802;SDS011;10562;-33.856;151.182;2023-12-29T09:19:16;13.20;;;3.80;;
20802;SDS011;10562;-33.856;151.182;2023-12-29T09:21:47;12.25;;;3.58;;
20802;SDS011;10562;-33.856;151.182;2023-12-29T09:24:17;11.90;;;4.47;;
20802;SDS011;10562;-33.856;151.182;2023-12-29T09:26:48;15.75;;;4.13;;
20802;SDS011;10562;-33.856;151.182;2023-12-29T09:29:20;11.88;;;4.22;;
20802;SDS011;10562;-33.856;151.182;2023-12-29T09:31:51;13.27;;;4.80;;
20802;SDS011;10562;-33.856;151.182;2023-12-29T09:34:24;14.90;;;5.00;;
20802;SDS011;10562;-33.856;151.182;2023-12-29T09:36:54;13.23;;;4.28;;
20802;SDS011;10562;-33.856;151.182;2023-12-29T09:39:25;12.93;;;4.38;;
20802;SDS011;10562;-33.856;151.182;2023-12-29T09:41:57;15.82;;;4.60;;
20802;SDS011;10562;-33.856;151.182;2023-12-29T09:44:30;15.90;;;4.15;;
20802;SDS011;10562;-33.856;151.182;2023-12-29T09:47:04;14.10;;;4.13;;
20802;SDS011;10562;-33.856;151.182;2023-12-29T09:49:40;12.23;;;3.45;;
20802;SDS011;10562;-33.856;151.182;2023-12-29T09:52:12;13.70;;;3.85;;
20802;SDS011;10562;-33.856;151.182;2023-12-29T09:54:44;16.13;;;3.95;;
20802;SDS011;10562;-33.856;151.182;2023-12-29T09:57:16;10.38;;;3.70;;
20802;SDS011;10562;-33.856;151.182;2023-12-29T09:59:48;13.88;;;3.63;;
20802;SDS011;10562;-33.856;151.182;2023-12-29T10:02:20;14.55;;;4.03;;
20802;SDS011;10562;-33.856;151.182;2023-12-29T10:04:54;6.75;;;2.80;;
20802;SDS011;10562;-33.856;151.182;2023-12-29T10:07:26;9.05;;;3.05;;
20802;SDS011;10562;-33.856;151.182;2023-12-29T10:09:58;9.65;;;3.08;;
20802;SDS011;10562;-33.856;151.182;2023-12-29T10:12:30;12.15;;;3.10;;
20802;SDS011;10562;-33.856;151.182;2023-12-29T10:15:05;6.20;;;2.58;;
20802;SDS011;10562;-33.856;151.182;2023-12-29T10:17:43;6.43;;;2.20;;
20802;SDS011;10562;-33.856;151.182;2023-12-29T10:20:29;6.10;;;1.63;;
20802;SDS011;10562;-33.856;151.182;2023-12-29T10:23:10;3.65;;;1.65;;
20802;SDS011;10562;-33.856;151.182;2023-12-29T10:25:43;5.50;;;1.65;;
20802;SDS011;10562;-33.856;151.182;2023-12-29T10:28:14;3.50;;;1.38;;
20802;SDS011;10562;-33.856;151.182;2023-12-29T10:30:47;4.03;;;1.30;;
20802;SDS011;10562;-33.856;151.182;2023-12-29T10:33:21;2.88;;;1.00;;
20802;SDS011;10562;-33.856;151.182;2023-12-29T10:36:00;2.05;;;1.20;;
20802;SDS011;10562;-33.856;151.182;2023-12-29T10:38:33;3.78;;;1.00;;
20802;SDS011;10562;-33.856;151.182;2023-12-29T10:41:11;2.70;;;1.15;;
20802;SDS011;10562;-33.856;151.182;2023-12-29T10:43:42;1.92;;;0.80;;
20802;SDS011;10562;-33.856;151.182;2023-12-29T10:46:18;4.57;;;0.90;;
20802;SDS011;10562;-33.856;151.182;2023-12-29T10:48:49;1.02;;;0.93;;
20802;SDS011;10562;-33.856;151.182;2023-12-29T10:51:26;1.13;;;0.90;;
20802;SDS011;10562;-33.856;151.182;2023-12-29T10:53:57;2.45;;;1.17;;
20802;SDS011;10562;-33.856;151.182;2023-12-29T10:56:28;1.90;;;1.10;;
20802;SDS011;10562;-33.856;151.182;2023-12-29T10:58:59;1.77;;;1.10;;
20802;SDS011;10562;-33.856;151.182;2023-12-29T11:01:31;1.30;;;1.00;;
20802;SDS011;10562;-33.856;151.182;2023-12-29T11:04:03;1.45;;;1.00;;
20802;SDS011;10562;-33.856;151.182;2023-12-29T11:06:41;2.35;;;1.00;;
20802;SDS011;10562;-33.856;151.182;2023-12-29T11:09:14;1.10;;;0.90;;
20802;SDS011;10562;-33.856;151.182;2023-12-29T11:11:59;1.50;;;1.20;;
20802;SDS011;10562;-33.856;151.182;2023-12-29T11:14:32;1.60;;;1.00;;
20802;SDS011;10562;-33.856;151.182;2023-12-29T11:17:03;2.28;;;0.95;;
20802;SDS011;10562;-33.856;151.182;2023-12-29T11:19:35;2.38;;;0.88;;
20802;SDS011;10562;-33.856;151.182;2023-12-29T11:22:09;2.20;;;1.05;;
20802;SDS011;10562;-33.856;151.182;2023-12-29T11:24:40;5.40;;;1.10;;
20802;SDS011;10562;-33.856;151.182;2023-12-29T11:27:11;1.90;;;0.98;;
20802;SDS011;10562;-33.856;151.182;2023-12-29T11:29:42;1.48;;;0.95;;
20802;SDS011;10562;-33.856;151.182;2023-12-29T11:32:16;1.20;;;0.90;;
20802;SDS011;10562;-33.856;151.182;2023-12-29T11:34:52;1.35;;;0.80;;
20802;SDS011;10562;-33.856;151.182;2023-12-29T11:37:31;2.35;;;1.00;;
20802;SDS011;10562;-33.856;151.182;2023-12-29T11:40:14;3.25;;;1.10;;
20802;SDS011;10562;-33.856;151.182;2023-12-29T11:42:49;1.85;;;1.10;;
20802;SDS011;10562;-33.856;151.182;2023-12-29T11:45:28;4.03;;;1.30;;
20802;SDS011;10562;-33.856;151.182;2023-12-29T11:48:00;2.25;;;1.23;;
20802;SDS011;10562;-33.856;151.182;2023-12-29T11:50:31;2.97;;;1.20;;
20802;SDS011;10562;-33.856;151.182;2023-12-29T11:53:04;2.75;;;1.13;;
20802;SDS011;10562;-33.856;151.182;2023-12-29T11:55:36;2.47;;;1.17;;
20802;SDS011;10562;-33.856;151.182;2023-12-29T11:58:23;2.42;;;1.08;;
20802;SDS011;10562;-33.856;151.182;2023-12-29T12:00:55;3.97;;;1.20;;
20802;SDS011;10562;-33.856;151.182;2023-12-29T12:03:26;2.88;;;1.20;;
20802;SDS011;10562;-33.856;151.182;2023-12-29T12:05:58;2.67;;;1.10;;
20802;SDS011;10562;-33.856;151.182;2023-12-29T12:08:32;2.40;;;1.05;;
20802;SDS011;10562;-33.856;151.182;2023-12-29T12:14:12;2.75;;;1.10;;
20802;SDS011;10562;-33.856;151.182;2023-12-29T12:17:28;2.45;;;1.10;;
20802;SDS011;10562;-33.856;151.182;2023-12-29T12:20:01;2.70;;;1.40;;
20802;SDS011;10562;-33.856;151.182;2023-12-29T12:22:35;2.42;;;1.42;;
20802;SDS011;10562;-33.856;151.182;2023-12-29T12:25:10;2.15;;;1.00;;
20802;SDS011;10562;-33.856;151.182;2023-12-29T12:27:41;2.90;;;1.17;;
20802;SDS011;10562;-33.856;151.182;2023-12-29T12:30:13;4.07;;;0.95;;
20802;SDS011;10562;-33.856;151.182;2023-12-29T12:32:57;2.20;;;1.20;;
20802;SDS011;10562;-33.856;151.182;2023-12-29T12:35:29;2.15;;;1.20;;
20802;SDS011;10562;-33.856;151.182;2023-12-29T12:38:10;2.08;;;1.05;;
20802;SDS011;10562;-33.856;151.182;2023-12-29T12:40:48;3.45;;;1.27;;
20802;SDS011;10562;-33.856;151.182;2023-12-29T12:43:19;2.63;;;1.20;;
20802;SDS011;10562;-33.856;151.182;2023-12-29T12:45:53;2.20;;;1.25;;
20802;SDS011;10562;-33.856;151.182;2023-12-29T12:48:29;2.22;;;1.15;;
20802;SDS011;10562;-33.856;151.182;2023-12-29T12:51:03;2.50;;;1.08;;
20802;SDS011;10562;-33.856;151.182;2023-12-29T12:53:34;3.17;;;1.27;;
20802;SDS011;10562;-33.856;151.182;2023-12-29T12:56:10;1.65;;;1.30;;
20802;SDS011;10562;-33.856;151.182;2023-12-29T12:58:41;1.98;;;1.20;;
20802;SDS011;10562;-33.856;151.182;2023-12-29T13:01:12;1.75;;;1.00;;
20802;SDS011;10562;-33.856;151.182;2023-12-29T13:03:43;2.63;;;1.10;;
20802;SDS011;10562;-33.856;151.182;2023-12-29T13:06:14;2.17;;;1.17;;
20802;SDS011;10562;-33.856;151.182;2023-12-29T13:08:45;2.78;;;1.20;;
20802;SDS011;10562;-33.856;151.182;2023-12-29T13:11:22;4.00;;;1.23;;
20802;SDS011;10562;-33.856;151.182;2023-12-29T13:13:53;3.10;;;1.17;;
20802;SDS011;10562;-33.856;151.182;2023-12-29T13:16:30;2.70;;;1.30;;
20802;SDS011;10562;-33.856;151.182;2023-12-29T13:19:15;2.80;;;1.30;;
20802;SDS011;10562;-33.856;151.182;2023-12-29T13:21:47;2.60;;;1.17;;
20802;SDS011;10562;-33.856;151.182;2023-12-29T13:24:20;5.85;;;1.40;;
20802;SDS011;10562;-33.856;151.182;2023-12-29T13:26:54;1.73;;;1.20;;
20802;SDS011;10562;-33.856;151.182;2023-12-29T13:29:30;4.30;;;1.30;;
20802;SDS011;10562;-33.856;151.182;2023-12-29T13:32:03;2.63;;;1.20;;
20802;SDS011;10562;-33.856;151.182;2023-12-29T13:34:38;3.13;;;1.40;;
20802;SDS011;10562;-33.856;151.182;2023-12-29T13:37:17;2.42;;;1.35;;
20802;SDS011;10562;-33.856;151.182;2023-12-29T13:39:53;2.97;;;1.40;;
20802;SDS011;10562;-33.856;151.182;2023-12-29T13:42:29;3.80;;;1.30;;
20802;SDS011;10562;-33.856;151.182;2023-12-29T13:45:01;2.85;;;1.40;;
20802;SDS011;10562;-33.856;151.182;2023-12-29T13:47:36;5.45;;;1.50;;
20802;SDS011;10562;-33.856;151.182;2023-12-29T13:50:08;3.75;;;1.50;;
20802;SDS011;10562;-33.856;151.182;2023-12-29T13:52:40;3.50;;;1.48;;
20802;SDS011;10562;-33.856;151.182;2023-12-29T13:55:13;5.93;;;1.75;;
20802;SDS011;10562;-33.856;151.182;2023-12-29T13:57:53;7.20;;;2.22;;
20802;SDS011;10562;-33.856;151.182;2023-12-29T14:00:25;7.05;;;2.17;;
20802;SDS011;10562;-33.856;151.182;2023-12-29T14:03:02;4.70;;;2.10;;
20802;SDS011;10562;-33.856;151.182;2023-12-29T14:05:36;5.75;;;2.20;;
20802;SDS011;10562;-33.856;151.182;2023-12-29T14:08:17;7.38;;;2.15;;
20802;SDS011;10562;-33.856;151.182;2023-12-29T14:10:53;5.82;;;2.35;;
20802;SDS011;10562;-33.856;151.182;2023-12-29T14:13:26;5.72;;;2.28;;
20802;SDS011;10562;-33.856;151.182;2023-12-29T14:15:57;9.20;;;2.42;;
20802;SDS011;10562;-33.856;151.182;2023-12-29T14:18:38;5.32;;;2.17;;
20802;SDS011;10562;-33.856;151.182;2023-12-29T14:21:26;7.93;;;2.15;;
20802;SDS011;10562;-33.856;151.182;2023-12-29T14:24:10;7.00;;;2.20;;
20802;SDS011;10562;-33.856;151.182;2023-12-29T14:26:42;8.13;;;2.33;;
20802;SDS011;10562;-33.856;151.182;2023-12-29T14:29:26;4.43;;;2.10;;
20802;SDS011;10562;-33.856;151.182;2023-12-29T14:31:57;7.82;;;2.40;;
20802;SDS011;10562;-33.856;151.182;2023-12-29T14:34:28;5.15;;;2.00;;
20802;SDS011;10562;-33.856;151.182;2023-12-29T14:37:00;6.47;;;2.15;;
20802;SDS011;10562;-33.856;151.182;2023-12-29T14:39:31;7.38;;;2.17;;
20802;SDS011;10562;-33.856;151.182;2023-12-29T14:42:02;8.55;;;2.20;;